createdAt,value
2023-01-30T00:01:58.575Z,42.43
2023-01-30T00:04:25.188Z,43.70
2023-01-30T00:06:51.790Z,38.50
2023-01-30T00:09:18.354Z,50.20
2023-01-30T00:11:44.941Z,50.80
2023-01-30T00:14:11.507Z,53.57
2023-01-30T00:16:38.185Z,49.27
2023-01-30T00:19:04.922Z,49.73
2023-01-30T00:21:31.500Z,44.57
2023-01-30T00:23:59.729Z,48.93
2023-01-30T00:26:26.565Z,44.93
2023-01-30T00:28:53.175Z,50.20
2023-01-30T00:31:19.762Z,47.43
2023-01-30T00:33:46.348Z,51.50
2023-01-30T00:36:12.988Z,53.90
2023-01-30T00:38:39.585Z,53.90
2023-01-30T00:41:06.184Z,51.50
2023-01-30T00:43:51.287Z,52.20
2023-01-30T00:46:51.767Z,50.40
2023-01-30T00:49:18.654Z,52.33
2023-01-30T00:51:45.441Z,44.93
2023-01-30T00:54:12.034Z,51.37
2023-01-30T00:56:38.624Z,49.67
2023-01-30T00:59:05.215Z,43.47
2023-01-30T01:01:31.867Z,47.47
2023-01-30T01:03:58.487Z,47.03
2023-01-30T01:06:25.069Z,49.47
2023-01-30T01:08:51.677Z,59.80
2023-01-30T01:11:24.307Z,50.50
2023-01-30T01:13:56.568Z,49.40
2023-01-30T01:16:24.025Z,53.57
2023-01-30T01:18:51.066Z,50.80
2023-01-30T01:21:20.216Z,45.80
2023-01-30T01:23:55.883Z,44.73
2023-01-30T01:26:23.096Z,52.60
2023-01-30T01:28:50.050Z,43.33
2023-01-30T01:31:17.516Z,49.00
2023-01-30T01:33:44.213Z,47.30
2023-01-30T01:36:11.364Z,43.60
2023-01-30T01:38:38.946Z,58.23
2023-01-30T01:41:06.277Z,47.07
2023-01-30T01:43:38.717Z,50.30
2023-01-30T01:46:12.059Z,48.47
2023-01-30T01:48:53.354Z,51.53
2023-01-30T01:51:31.835Z,57.00
2023-01-30T01:54:08.397Z,47.80
2023-01-30T01:56:37.570Z,57.40
2023-01-30T01:59:27.785Z,50.50
2023-01-30T02:01:59.790Z,54.80
2023-01-30T02:04:46.539Z,60.70
2023-01-30T02:07:14.456Z,55.63
2023-01-30T02:09:41.050Z,53.00
2023-01-30T02:12:09.264Z,60.13
2023-01-30T02:14:37.245Z,52.30
2023-01-30T02:17:03.923Z,56.67
2023-01-30T02:19:47.147Z,53.60
2023-01-30T02:22:18.175Z,53.00
2023-01-30T02:25:21.942Z,48.20
2023-01-30T02:28:24.880Z,50.53
2023-01-30T02:31:21.955Z,54.43
2023-01-30T02:34:05.228Z,43.73
2023-01-30T02:37:02.255Z,55.20
2023-01-30T02:39:37.885Z,57.47
2023-01-30T02:42:18.039Z,51.47
2023-01-30T02:44:58.358Z,43.93
2023-01-30T02:47:38.395Z,46.77
2023-01-30T02:50:15.812Z,43.77
2023-01-30T02:52:43.171Z,42.30
2023-01-30T02:55:19.034Z,40.73
2023-01-30T02:57:45.792Z,43.17
2023-01-30T03:00:15.003Z,41.50
2023-01-30T03:03:07.065Z,36.70
2023-01-30T03:05:59.559Z,39.77
2023-01-30T03:08:38.063Z,45.50
2023-01-30T03:11:07.215Z,42.60
2023-01-30T03:13:48.513Z,46.30
2023-01-30T03:16:23.459Z,41.43
2023-01-30T03:18:50.502Z,38.97
2023-01-30T03:21:17.489Z,42.37
2023-01-30T03:23:47.307Z,39.43
2023-01-30T03:26:23.442Z,37.57
2023-01-30T03:28:51.359Z,33.43
2023-01-30T03:31:18.041Z,37.77
2023-01-30T03:33:44.784Z,33.50
2023-01-30T03:36:11.805Z,42.40
2023-01-30T03:38:38.397Z,35.63
2023-01-30T03:41:05.573Z,37.57
2023-01-30T03:43:32.159Z,35.30
2023-01-30T03:45:58.757Z,38.13
2023-01-30T03:48:25.333Z,40.47
2023-01-30T03:50:51.983Z,36.70
2023-01-30T03:53:18.553Z,39.10
2023-01-30T03:55:45.541Z,35.13
2023-01-30T03:58:12.299Z,36.60
2023-01-30T04:00:38.879Z,34.77
2023-01-30T04:03:05.464Z,31.80
2023-01-30T04:05:32.019Z,37.30
2023-01-30T04:07:58.977Z,36.33
2023-01-30T04:10:26.881Z,37.30
2023-01-30T04:12:53.495Z,34.93
2023-01-30T04:15:20.441Z,36.63
2023-01-30T04:17:47.856Z,30.83
2023-01-30T04:20:14.492Z,32.83
2023-01-30T04:22:41.160Z,31.67
2023-01-30T04:25:08.223Z,33.13
2023-01-30T04:27:34.773Z,29.97
2023-01-30T04:30:01.339Z,27.43
2023-01-30T04:32:27.908Z,33.03
2023-01-30T04:34:54.511Z,32.30
2023-01-30T04:37:21.060Z,31.70
2023-01-30T04:39:47.598Z,25.40
2023-01-30T04:42:14.203Z,31.03
2023-01-30T04:44:40.817Z,28.97
2023-01-30T04:47:07.387Z,28.77
2023-01-30T04:49:33.959Z,28.10
2023-01-30T04:52:00.498Z,28.43
2023-01-30T04:54:27.072Z,29.63
2023-01-30T04:56:53.695Z,24.57
2023-01-30T04:59:20.240Z,24.00
2023-01-30T05:01:46.819Z,27.40
2023-01-30T05:04:13.399Z,25.23
2023-01-30T05:06:39.941Z,25.83
2023-01-30T05:09:07.250Z,26.27
2023-01-30T05:11:34.095Z,24.57
2023-01-30T05:14:00.954Z,24.10
2023-01-30T05:16:27.839Z,23.93
2023-01-30T05:18:54.442Z,26.70
2023-01-30T05:21:28.375Z,22.70
2023-01-30T05:23:56.704Z,19.90
2023-01-30T05:26:24.284Z,27.13
2023-01-30T05:28:53.396Z,24.97
2023-01-30T05:31:20.443Z,25.40
2023-01-30T05:33:49.073Z,25.03
2023-01-30T05:36:21.278Z,28.60
2023-01-30T05:38:48.021Z,28.90
2023-01-30T05:41:16.294Z,27.73
2023-01-30T05:43:43.384Z,24.60
2023-01-30T05:46:11.994Z,22.13
2023-01-30T05:48:38.803Z,27.27
2023-01-30T05:51:05.673Z,26.30
2023-01-30T05:53:37.186Z,25.40
2023-01-30T05:56:05.579Z,28.13
2023-01-30T05:58:32.928Z,21.97
2023-01-30T06:01:04.162Z,27.47
2023-01-30T06:03:31.826Z,21.50
2023-01-30T06:05:58.626Z,23.87
2023-01-30T06:08:25.355Z,26.93
2023-01-30T06:10:51.975Z,22.30
2023-01-30T06:13:18.540Z,26.93
2023-01-30T06:15:45.546Z,26.53
2023-01-30T06:18:12.248Z,27.50
2023-01-30T06:20:38.921Z,29.27
2023-01-30T06:23:05.516Z,29.23
2023-01-30T06:25:32.107Z,32.63
2023-01-30T06:27:58.646Z,33.03
2023-01-30T06:30:25.311Z,25.67
2023-01-30T06:32:52.039Z,27.13
2023-01-30T06:35:19.306Z,29.53
2023-01-30T06:37:46.125Z,29.87
2023-01-30T06:40:13.440Z,23.63
2023-01-30T06:42:45.060Z,26.50
2023-01-30T06:45:12.467Z,26.50
2023-01-30T06:47:55.364Z,25.80
2023-01-30T06:50:24.243Z,24.93
2023-01-30T06:52:52.039Z,28.63
2023-01-30T06:55:25.376Z,23.20
2023-01-30T06:58:08.719Z,20.20
2023-01-30T07:00:36.410Z,20.57
2023-01-30T07:03:03.030Z,23.43
2023-01-30T07:05:29.712Z,21.00
2023-01-30T07:07:56.427Z,19.53
2023-01-30T07:10:23.835Z,21.60
2023-01-30T07:12:50.409Z,29.17
2023-01-30T07:15:17.416Z,21.47
2023-01-30T07:17:44.256Z,26.23
2023-01-30T07:20:11.745Z,20.27
2023-01-30T07:22:38.527Z,28.73
2023-01-30T07:25:05.793Z,19.10
2023-01-30T07:27:32.595Z,23.07
2023-01-30T07:29:59.160Z,20.17
2023-01-30T07:32:25.787Z,19.57
2023-01-30T07:34:52.331Z,15.53
2023-01-30T07:37:18.919Z,20.77
2023-01-30T07:39:45.462Z,16.33
2023-01-30T07:42:12.009Z,14.40
2023-01-30T07:44:38.566Z,15.80
2023-01-30T07:47:05.413Z,13.53
2023-01-30T07:49:31.983Z,13.37
2023-01-30T07:51:58.545Z,12.40
2023-01-30T07:54:26.556Z,13.67
2023-01-30T07:56:53.370Z,9.20
2023-01-30T07:59:20.005Z,10.30
2023-01-30T08:01:46.567Z,15.47
2023-01-30T08:04:13.240Z,8.17
2023-01-30T08:06:39.886Z,7.93
2023-01-30T08:09:07.208Z,14.40
2023-01-30T08:11:34.474Z,13.83
2023-01-30T08:14:01.205Z,8.23
2023-01-30T08:16:28.028Z,10.40
2023-01-30T08:18:54.603Z,16.13
2023-01-30T08:21:24.199Z,19.13
2023-01-30T08:23:50.904Z,5.77
2023-01-30T08:26:17.773Z,12.00
2023-01-30T08:28:44.456Z,9.50
2023-01-30T08:31:12.896Z,9.90
2023-01-30T08:33:39.597Z,12.13
2023-01-30T08:36:06.611Z,9.00
2023-01-30T08:38:33.234Z,5.30
2023-01-30T08:41:00.944Z,9.47
2023-01-30T08:43:27.562Z,9.50
2023-01-30T08:45:55.108Z,9.50
2023-01-30T08:48:22.008Z,12.40
2023-01-30T08:50:52.085Z,9.73
2023-01-30T08:53:18.861Z,11.47
2023-01-30T08:55:45.621Z,11.47
2023-01-30T08:58:12.182Z,8.03
2023-01-30T09:00:39.744Z,15.63
2023-01-30T09:03:06.331Z,7.30
2023-01-30T09:05:32.923Z,11.63
2023-01-30T09:07:59.535Z,9.57
2023-01-30T09:10:26.224Z,22.93
2023-01-30T09:12:52.875Z,16.57
2023-01-30T09:15:19.490Z,10.03
2023-01-30T09:17:46.097Z,10.37
2023-01-30T09:20:13.070Z,10.77
2023-01-30T09:22:39.792Z,13.03
2023-01-30T09:25:06.880Z,7.80
2023-01-30T09:27:33.475Z,7.80
2023-01-30T09:30:00.047Z,11.83
2023-01-30T09:32:26.684Z,16.97
2023-01-30T09:34:53.414Z,16.87
2023-01-30T09:37:19.978Z,9.33
2023-01-30T09:39:46.577Z,16.50
2023-01-30T09:42:33.630Z,21.87
2023-01-30T09:45:03.435Z,10.30
2023-01-30T09:47:39.341Z,20.43
2023-01-30T09:50:40.140Z,10.43
2023-01-30T09:53:16.119Z,8.00
2023-01-30T09:55:43.370Z,11.87
2023-01-30T09:58:22.604Z,10.60
2023-01-30T10:00:52.944Z,13.07
2023-01-30T10:03:23.252Z,15.70
2023-01-30T10:05:58.699Z,8.90
2023-01-30T10:08:52.531Z,18.60
2023-01-30T10:11:38.784Z,9.93
2023-01-30T10:14:33.716Z,11.73
2023-01-30T10:17:33.027Z,7.07
2023-01-30T10:20:23.761Z,10.33
2023-01-30T10:23:11.173Z,13.67
2023-01-30T10:25:47.063Z,6.43
2023-01-30T10:28:31.701Z,11.20
2023-01-30T10:31:13.608Z,8.97
2023-01-30T10:34:01.219Z,5.53
2023-01-30T10:36:50.286Z,16.60
2023-01-30T10:39:30.946Z,8.63
2023-01-30T10:42:13.199Z,16.20
2023-01-30T10:44:42.578Z,16.17
2023-01-30T10:47:38.045Z,8.57
2023-01-30T10:50:29.446Z,7.47
2023-01-30T10:53:34.668Z,13.63
2023-01-30T10:56:15.743Z,8.57
2023-01-30T10:59:03.302Z,5.93
2023-01-30T11:01:45.209Z,7.43
2023-01-30T11:04:24.751Z,9.77
2023-01-30T11:06:53.287Z,6.40
2023-01-30T11:09:19.837Z,9.40
2023-01-30T11:11:52.233Z,13.97
2023-01-30T11:14:27.895Z,13.97
2023-01-30T11:16:55.690Z,8.10
2023-01-30T11:19:34.362Z,11.73
2023-01-30T11:22:03.840Z,7.30
2023-01-30T11:24:42.801Z,8.83
2023-01-30T11:27:28.627Z,10.83
2023-01-30T11:30:12.330Z,11.60
2023-01-30T11:32:39.012Z,6.13
2023-01-30T11:35:08.362Z,8.30
2023-01-30T11:37:40.754Z,12.73
2023-01-30T11:40:28.296Z,15.40
2023-01-30T11:43:12.575Z,9.63
2023-01-30T11:45:46.497Z,12.80
2023-01-30T11:48:33.281Z,11.37
2023-01-30T11:51:09.216Z,8.53
2023-01-30T11:53:38.008Z,10.27
2023-01-30T11:56:20.085Z,8.50
2023-01-30T11:58:58.012Z,14.80
2023-01-30T12:01:30.927Z,7.80
2023-01-30T12:03:58.595Z,11.57
2023-01-30T12:06:32.243Z,13.23
2023-01-30T12:08:59.653Z,11.73
2023-01-30T12:11:52.288Z,9.23
2023-01-30T12:14:50.783Z,8.73
2023-01-30T12:17:42.623Z,7.87
2023-01-30T12:20:50.826Z,8.77
2023-01-30T12:23:40.531Z,5.30
2023-01-30T12:26:37.159Z,15.40
2023-01-30T12:29:22.937Z,10.30
2023-01-30T12:32:29.217Z,20.83
2023-01-30T12:34:56.280Z,10.03
2023-01-30T12:37:49.795Z,11.70
2023-01-30T12:40:25.444Z,11.70
2023-01-30T12:42:55.153Z,10.13
2023-01-30T12:45:25.150Z,12.10
2023-01-30T12:48:11.842Z,7.40
2023-01-30T12:50:57.021Z,4.87
2023-01-30T12:53:27.332Z,6.13
2023-01-30T12:56:05.554Z,15.53
2023-01-30T12:58:43.638Z,7.63
2023-01-30T13:01:22.236Z,11.60
2023-01-30T13:03:59.654Z,10.53
2023-01-30T13:06:50.038Z,8.10
2023-01-30T13:09:28.713Z,6.43
2023-01-30T13:12:04.889Z,11.80
2023-01-30T13:14:50.002Z,15.93
2023-01-30T13:17:25.256Z,12.23
2023-01-30T13:20:01.406Z,13.57
2023-01-30T13:22:43.561Z,9.63
2023-01-30T13:25:38.549Z,10.80
2023-01-30T13:28:21.218Z,8.43
2023-01-30T13:30:51.010Z,15.97
2023-01-30T13:33:25.251Z,17.90
2023-01-30T13:35:57.676Z,6.47
2023-01-30T13:38:26.999Z,16.80
2023-01-30T13:40:56.558Z,9.63
2023-01-30T13:43:31.688Z,10.40
2023-01-30T13:46:03.327Z,12.17
2023-01-30T13:48:46.702Z,5.53
2023-01-30T13:51:44.769Z,6.40
2023-01-30T13:54:20.488Z,6.73
2023-01-30T13:57:20.960Z,11.37
2023-01-30T14:00:19.396Z,12.73
2023-01-30T14:03:07.294Z,6.50
2023-01-30T14:06:21.600Z,11.33
2023-01-30T14:08:53.351Z,10.00
2023-01-30T14:11:38.851Z,10.10
2023-01-30T14:14:31.784Z,11.23
2023-01-30T14:17:10.063Z,12.10
2023-01-30T14:19:40.834Z,15.07
2023-01-30T14:22:23.480Z,12.47
2023-01-30T14:25:27.379Z,16.53
2023-01-30T14:28:02.495Z,12.63
2023-01-30T14:30:31.968Z,6.87
2023-01-30T14:33:00.565Z,14.97
2023-01-30T14:35:29.260Z,11.50
2023-01-30T14:38:18.047Z,8.23
2023-01-30T14:41:08.614Z,10.03
2023-01-30T14:43:36.485Z,11.57
2023-01-30T14:46:08.750Z,8.70
2023-01-30T14:48:49.897Z,10.67
2023-01-30T14:51:45.260Z,12.03
2023-01-30T14:54:11.795Z,8.83
2023-01-30T14:56:55.722Z,14.83
2023-01-30T14:59:31.554Z,12.73
2023-01-30T15:02:06.781Z,22.00
2023-01-30T15:04:46.032Z,10.70
2023-01-30T15:07:19.103Z,13.37
2023-01-30T15:10:06.538Z,4.53
2023-01-30T15:12:58.163Z,15.20
2023-01-30T15:16:03.122Z,9.20
2023-01-30T15:19:03.501Z,7.33
2023-01-30T15:21:56.440Z,10.00
2023-01-30T15:24:41.813Z,20.63
2023-01-30T15:27:14.216Z,9.80
2023-01-30T15:30:05.875Z,12.57
2023-01-30T15:32:33.320Z,21.73
2023-01-30T15:35:16.357Z,11.97
2023-01-30T15:37:45.889Z,8.80
2023-01-30T15:40:15.392Z,11.60
2023-01-30T15:43:00.702Z,10.60
2023-01-30T15:45:37.804Z,8.87
2023-01-30T15:48:25.633Z,13.10
2023-01-30T15:50:59.063Z,19.80
2023-01-30T15:53:40.183Z,16.87
2023-01-30T15:56:09.887Z,10.67
2023-01-30T15:58:40.978Z,14.10
2023-01-30T16:01:08.545Z,9.30
2023-01-30T16:03:40.733Z,12.63
2023-01-30T16:06:09.262Z,12.93
2023-01-30T16:08:36.917Z,13.00
2023-01-30T16:11:03.746Z,10.57
2023-01-30T16:13:33.024Z,13.83
2023-01-30T16:16:12.441Z,10.37
2023-01-30T16:18:51.223Z,11.43
2023-01-30T16:21:21.998Z,10.50
2023-01-30T16:24:18.097Z,10.47
2023-01-30T16:26:48.319Z,11.33
2023-01-30T16:29:23.960Z,13.57
2023-01-30T16:31:52.835Z,16.87
2023-01-30T16:34:28.222Z,14.83
2023-01-30T16:36:55.686Z,13.37
2023-01-30T16:39:40.342Z,11.73
2023-01-30T16:42:25.155Z,7.30
2023-01-30T16:44:52.496Z,18.00
2023-01-30T16:47:31.364Z,13.13
2023-01-30T16:49:57.942Z,12.27
2023-01-30T16:52:36.990Z,14.90
2023-01-30T16:55:07.937Z,12.67
2023-01-30T16:57:42.568Z,11.00
2023-01-30T17:00:32.274Z,13.93
2023-01-30T17:03:01.665Z,14.27
2023-01-30T17:05:30.420Z,7.97
2023-01-30T17:07:58.107Z,17.77
2023-01-30T17:10:40.010Z,8.70
2023-01-30T17:13:36.803Z,4.93
2023-01-30T17:16:21.807Z,17.93
2023-01-30T17:18:53.621Z,14.50
2023-01-30T17:21:22.752Z,12.40
2023-01-30T17:24:01.771Z,12.37
2023-01-30T17:26:28.686Z,10.67
2023-01-30T17:28:55.327Z,16.43
2023-01-30T17:31:22.737Z,14.77
2023-01-30T17:33:49.385Z,18.33
2023-01-30T17:36:24.997Z,17.43
2023-01-30T17:38:52.517Z,10.40
2023-01-30T17:41:29.997Z,16.57
2023-01-30T17:43:57.198Z,10.87
2023-01-30T17:46:32.059Z,14.17
2023-01-30T17:48:58.641Z,19.30
2023-01-30T17:51:25.235Z,15.13
2023-01-30T17:53:51.848Z,24.50
2023-01-30T17:56:29.969Z,18.17
2023-01-30T17:58:56.535Z,10.63
2023-01-30T18:01:23.112Z,12.23
2023-01-30T18:03:49.739Z,15.17
2023-01-30T18:06:16.536Z,5.17
2023-01-30T18:08:43.107Z,20.73
2023-01-30T18:11:11.821Z,20.03
2023-01-30T18:13:39.585Z,11.83
2023-01-30T18:16:06.987Z,11.50
2023-01-30T18:18:33.762Z,20.37
2023-01-30T18:21:00.404Z,10.77
2023-01-30T18:23:26.942Z,14.37
2023-01-30T18:25:53.471Z,24.97
2023-01-30T18:28:20.042Z,17.37
2023-01-30T18:30:46.665Z,16.20
2023-01-30T18:33:13.300Z,6.13
2023-01-30T18:35:39.878Z,12.23
2023-01-30T18:38:06.486Z,16.33
2023-01-30T18:40:33.076Z,14.13
2023-01-30T18:42:59.666Z,8.07
2023-01-30T18:45:26.297Z,13.73
2023-01-30T18:47:54.345Z,16.77
2023-01-30T18:50:21.307Z,23.00
2023-01-30T18:52:48.265Z,15.33
2023-01-30T18:55:14.923Z,30.00
2023-01-30T18:57:41.492Z,20.63
2023-01-30T19:00:08.694Z,12.47
2023-01-30T19:02:35.317Z,14.30
2023-01-30T19:05:01.949Z,15.03
2023-01-30T19:07:28.552Z,12.03
2023-01-30T19:09:56.265Z,20.30
2023-01-30T19:12:42.315Z,9.37
2023-01-30T19:15:09.340Z,12.20
2023-01-30T19:17:35.891Z,9.93
2023-01-30T19:20:04.678Z,7.33
2023-01-30T19:22:31.198Z,18.53
2023-01-30T19:24:57.759Z,12.67
2023-01-30T19:27:25.841Z,20.00
2023-01-30T19:29:52.625Z,12.13
2023-01-30T19:32:19.194Z,14.20
2023-01-30T19:34:45.776Z,13.27
2023-01-30T19:37:12.350Z,8.80
2023-01-30T19:39:38.972Z,10.20
2023-01-30T19:42:05.595Z,15.70
2023-01-30T19:44:32.182Z,14.23
2023-01-30T19:46:58.765Z,19.63
2023-01-30T19:49:25.301Z,17.53
2023-01-30T19:51:51.859Z,19.27
2023-01-30T19:54:18.725Z,18.20
2023-01-30T19:56:48.212Z,18.03
2023-01-30T19:59:16.445Z,22.70
2023-01-30T20:01:43.177Z,18.20
2023-01-30T20:04:09.986Z,9.83
2023-01-30T20:06:38.103Z,13.47
2023-01-30T20:09:11.005Z,15.47
2023-01-30T20:11:39.565Z,19.17
2023-01-30T20:14:07.045Z,10.30
2023-01-30T20:16:35.510Z,10.73
2023-01-30T20:19:05.186Z,20.67
2023-01-30T20:21:32.242Z,20.77
2023-01-30T20:24:00.053Z,9.73
2023-01-30T20:26:30.101Z,19.03
2023-01-30T20:28:58.012Z,13.33
2023-01-30T20:31:27.350Z,17.23
2023-01-30T20:33:57.284Z,21.20
2023-01-30T20:36:26.095Z,15.87
2023-01-30T20:38:53.785Z,15.43
2023-01-30T20:41:23.037Z,11.23
2023-01-30T20:43:57.186Z,22.80
2023-01-30T20:46:27.152Z,19.93
2023-01-30T20:48:55.060Z,12.60
2023-01-30T20:51:29.331Z,14.33
2023-01-30T20:54:01.758Z,13.73
2023-01-30T20:56:39.776Z,16.00
2023-01-30T20:59:07.647Z,18.93
2023-01-30T21:01:34.390Z,20.90
2023-01-30T21:04:05.909Z,12.60
2023-01-30T21:06:41.309Z,19.93
2023-01-30T21:09:17.705Z,14.73
2023-01-30T21:11:44.764Z,16.00
2023-01-30T21:14:11.809Z,15.47
2023-01-30T21:16:39.375Z,7.97
2023-01-30T21:19:08.160Z,18.73
2023-01-30T21:21:39.112Z,15.43
2023-01-30T21:24:09.035Z,16.97
2023-01-30T21:26:38.136Z,15.73
2023-01-30T21:29:08.231Z,15.07
2023-01-30T21:31:37.444Z,15.80
2023-01-30T21:34:04.775Z,14.23
2023-01-30T21:36:31.601Z,26.60
2023-01-30T21:39:16.617Z,14.10
2023-01-30T21:42:03.387Z,11.57
2023-01-30T21:44:32.559Z,10.10
2023-01-30T21:46:59.681Z,20.90
2023-01-30T21:49:27.836Z,21.87
2023-01-30T21:51:55.217Z,14.23
2023-01-30T21:54:21.987Z,18.93
2023-01-30T21:56:49.481Z,17.93
2023-01-30T21:59:16.514Z,20.57
2023-01-30T22:01:43.404Z,14.80
2023-01-30T22:04:13.837Z,16.13
2023-01-30T22:06:41.459Z,17.67
2023-01-30T22:09:08.735Z,17.83
2023-01-30T22:11:37.707Z,15.70
2023-01-30T22:14:04.435Z,21.23
2023-01-30T22:16:33.522Z,16.80
2023-01-30T22:19:03.229Z,28.03
2023-01-30T22:21:33.965Z,18.13
2023-01-30T22:24:02.451Z,22.80
2023-01-30T22:26:29.427Z,12.13
2023-01-30T22:28:58.117Z,15.10
2023-01-30T22:31:26.266Z,14.00
2023-01-30T22:33:55.441Z,16.30
2023-01-30T22:36:25.628Z,15.50
2023-01-30T22:38:52.335Z,23.03
2023-01-30T22:41:22.457Z,19.57
2023-01-30T22:43:57.791Z,9.90
2023-01-30T22:46:27.536Z,11.63
2023-01-30T22:48:54.665Z,16.07
2023-01-30T22:51:26.279Z,19.30
2023-01-30T22:53:55.534Z,14.80
2023-01-30T22:56:27.728Z,9.63
2023-01-30T22:58:54.747Z,17.67
2023-01-30T23:01:33.228Z,16.10
2023-01-30T23:04:04.204Z,11.00
2023-01-30T23:06:31.660Z,19.67
2023-01-30T23:08:59.676Z,9.70
2023-01-30T23:11:29.810Z,21.97
2023-01-30T23:13:59.399Z,15.13
2023-01-30T23:16:27.780Z,13.53
2023-01-30T23:19:01.464Z,13.27
2023-01-30T23:21:37.177Z,13.83
2023-01-30T23:24:05.879Z,17.87
2023-01-30T23:26:34.635Z,18.57
2023-01-30T23:29:03.225Z,18.77
2023-01-30T23:31:30.640Z,10.77
2023-01-30T23:33:59.546Z,10.10
2023-01-30T23:36:26.825Z,12.90
2023-01-30T23:38:55.868Z,11.00
2023-01-30T23:41:33.728Z,21.50
2023-01-30T23:44:00.859Z,13.93
2023-01-30T23:46:33.128Z,13.70
2023-01-30T23:49:02.388Z,13.53
2023-01-30T23:51:30.690Z,14.17
2023-01-30T23:53:57.990Z,8.50
2023-01-30T23:56:27.599Z,35.17
2023-01-30T23:58:54.762Z,12.13
